Relevés horaires Bierset (Belgique)


Relevés horaires à Bierset - Vendredi 25 Déc. 2020
Heure UTC1 Température [°C] Vent [km/h] Hum. [%] Pres.4 [hPa] Visi. [Km] Nébu. [octa] Préc.5 [mm] Cond.
2m. Res. Ros. Dir.2 Vit. Moy. Raf.3
23:00 0.6 -1.2 0.2 OSO 5.6 5.6 7.4 97 1027.2(0.1/3h) 8 7/8 -- --
22:00 1.0 1.0 0.5 OSO 3.7 3.7 5.6 96 1027.1(0.2/3h) 11 7/8 -- --
21:00 0.9 0.9 0.3 OSO 3.7 3.7 7.4 96 1027.2(0.5/3h) 15 7/8 -- --
20:00 0.8 0.8 -- O 3.7 3.7 7.4 -- 1027.1(0.6/3h) 20 6/8 -- --
19:00 0.9 0.9 -0.1 ONO 3.7 3.7 7.4 93 1026.9(0.9/3h) 20 3/8 -- --
18:00 0.9 0.9 -0.3 ONO 3.7 7.4 13.0 92 1026.8(1.1/3h) 20 2/8 0/12h
--
17:00 1.4 1.4 -0.3 ONO 3.7 3.7 7.4 88 1026.5(1.0/3h) 20 2/8 -- --
16:00 2.5 2.5 0.2 NO 3.7 5.6 9.3 85 1025.9(-0.2/3h) 20 2/8 -- --
15:00 3.7 2.4 0.5 NO 5.6 7.4 13.0 80 1025.4(-0.4/3h) 20 3/8 -- --
14:00 3.9 2.6 0.9 NNO 5.6 7.4 11.1 81 1025.3(-0.7/3h) 20 3/8 -- --
13:00 4.0 2.1 1.5 NNO 7.4 7.4 11.1 84 1025.5(0.1/3h) 20 3/8 -- --
12:00 3.4 1.4 1.4 NO 7.4 7.4 11.1 87 1025.8(0.6/3h) 20 3/8 0/6h
--
11:00 2.4 0.9 1.2 NO 5.6 5.6 7.4 92 1026.1(1.1/3h) 20 5/8 -- --
10:00 1.3 1.3 0.7 NO 3.7 5.6 7.4 96 1025.9(1.5/3h) 11 3/8 -- --
09:00 0.7 0.7 0.1 NO 3.7 5.6 7.4 96 1025.4(1.6/3h) 13 3/8 -- --
08:00 0.8 0.8 0.3 ONO 3.7 5.6 7.4 96 1025.1(1.9/3h) 20 5/8 -- --
07:00 0.6 0.6 0.1 NO 3.7 3.7 7.4 96 1024.4(1.7/3h) 15 7/8 -- --
06:00 1.2 1.2 0.8 ONO 3.7 7.4 11.1 97 1023.8(1.8/3h) 15 7/8 trace/12h
Etat du ciel inchangé
05:00 1.3 1.3 0.8 NNO 3.7 7.4 11.1 96 1023.2(1.8/3h) 18 7/8 -- --
04:00 2.0 -0.2 1.2 NNO 7.4 7.4 11.1 94 1022.5(1.9/3h) 20 7/8 -- --
03:00 2.0 0.4 1.2 NNO 5.6 7.4 11.1 94 1022(1.8/3h) 18 7/8 -- --
02:00 2.4 0.9 1.6 NO 5.6 7.4 11.1 94 1021.2(1.7/3h) 16 7/8 -- --
01:00 2.6 0.5 1.5 NNO 7.4 7.4 11.1 92 1020.5(1.5/3h) 18 7/8 -- --
00:00 2.8 1.3 1.7 NNO 5.6 9.3 13.0 92 1020(1.6/3h) 18 7/8 trace/6h
4.1/24h
Il y a des averses de pluie faibles à la station au moment de l'observation

1 Coordinated Universal Time. Actuellement il est 16:00 locale et 15:00 UTC.

2 Le vent souffle depuis la direction indiquée vers la direction oposée.

3 Les rafales max. sont disponible 40 min après l'heure du relevé.

4 Pour les stations d'altitude (plus de 600m) le géopotentiel du niveau le plus proche de la pression obligatoire est indiqué.

5 Les stations disposant d'un diffuseur peuvent indiquer "trace". Cela signifie que des précipitations ont touchés le sol mais que la quantité est inférieure à 0.1 mm.

Récapitulatif de la journée
Température [°C] Vent [km/h] Ensoleillement4 [h] Precipitations totale5 [mm] Pression [Hpa]
Min1 Max.2 Moy.3 Max. Min Max.
0.9 4.4 6.1 13.0 0 h 0 min 0 1020.0 1027.2

1 Température minimale relevée entre 18:00 UTC la veille et 18:00 UTC le jour donné.

2 Température maximale relevée entre 06:00 UTC le jour donné et 06:00 UTC le lendemain.

3 Vent moyen de la journée basé sur les relevés horaires.

4 Ensoleillement en heures relevé entre 06:00 UTC la veille et 06:00 UTC le jour donné.

5 Précipitations totales tombées entre 06:00 UTC la jour donné et 06:00 UTC le lendemain.

Graphiques horaires